Time;durP1;ratioP1;P1;durP2;ratioP2;P2;SDS_P1;SDS_P2;PMS_P1;PMS_P2;Temp;Humidity;BMP_temperature;BMP_pressure;BME280_temperature;BME280_humidity;BME280_pressure;Samples;Min_cycle;Max_cycle;Signal;HPM_P1;HPM_P2
2021/10/10 00:00:59;;;;;;;6.47;3.83;;;;;;;9.27;54.37;102352.22;7981925;28;20025;-68
2021/10/10 00:04:50;;;;;;;6.38;3.65;;;;;;;9.23;54.32;102341.91;7968842;28;20420;-69
2021/10/10 00:08:40;;;;;;;7.28;3.60;;;;;;;9.19;54.42;102343.78;7987354;28;20036;-69
2021/10/10 00:12:31;;;;;;;6.40;4.38;;;;;;;9.16;54.14;102343.03;7978641;28;20049;-69
2021/10/10 00:16:22;;;;;;;6.78;4.35;;;;;;;9.14;54.40;102339.59;7983850;28;20083;-69
2021/10/10 00:20:12;;;;;;;5.50;3.63;;;;;;;9.07;54.41;102331.13;7978443;28;20071;-69
2021/10/10 00:24:03;;;;;;;5.68;3.97;;;;;;;9.05;54.39;102335.56;7969690;28;20036;-68
2021/10/10 00:27:53;;;;;;;6.53;3.85;;;;;;;9.05;54.29;102346.03;7987137;28;20091;-69
2021/10/10 00:31:44;;;;;;;6.97;3.58;;;;;;;9.00;54.36;102344.50;7992313;28;20033;-69
2021/10/10 00:35:34;;;;;;;7.38;4.28;;;;;;;8.97;54.50;102345.47;7985688;28;20033;-69
2021/10/10 00:39:25;;;;;;;8.80;3.80;;;;;;;9.00;54.25;102353.22;7978782;28;20749;-69
2021/10/10 00:43:16;;;;;;;5.13;3.88;;;;;;;8.97;54.48;102350.72;7981708;28;20069;-69
2021/10/10 00:47:06;;;;;;;7.72;4.38;;;;;;;8.95;54.37;102349.94;7979627;28;20686;-69
2021/10/10 00:50:57;;;;;;;9.23;4.28;;;;;;;8.93;54.46;102349.09;7986050;28;20041;-68
2021/10/10 00:54:48;;;;;;;5.72;3.75;;;;;;;8.91;54.33;102347.47;7985020;28;20033;-69
2021/10/10 00:58:41;;;;;;;5.57;3.80;;;;;;;8.87;54.01;102355.41;7985431;28;20052;-68
2021/10/10 01:02:32;;;;;;;8.45;3.75;;;;;;;8.79;54.35;102341.72;7984869;28;20037;-69
2021/10/10 01:06:23;;;;;;;5.97;3.75;;;;;;;8.77;54.00;102346.19;7984732;28;20090;-69
2021/10/10 01:10:15;;;;;;;6.47;3.85;;;;;;;8.70;54.08;102344.69;7981043;28;20025;-68
2021/10/10 01:14:06;;;;;;;5.45;4.00;;;;;;;8.64;54.11;102339.66;7967526;28;20037;-69
2021/10/10 01:17:57;;;;;;;5.80;4.22;;;;;;;8.60;53.70;102350.28;7987386;28;20037;-68
2021/10/10 01:21:47;;;;;;;6.50;3.90;;;;;;;8.52;53.97;102339.22;7992255;28;20087;-69
2021/10/10 01:25:38;;;;;;;9.45;4.25;;;;;;;8.42;53.84;102335.22;7992480;28;20040;-67
2021/10/10 01:29:28;;;;;;;5.97;3.80;;;;;;;8.37;54.16;102335.38;7992566;28;20068;-67
2021/10/10 01:33:19;;;;;;;5.60;3.88;;;;;;;8.31;53.64;102335.56;7995716;28;20029;-67
2021/10/10 01:37:09;;;;;;;6.20;3.72;;;;;;;8.24;53.66;102334.06;7983652;28;20056;-67
2021/10/10 01:41:00;;;;;;;7.15;4.13;;;;;;;8.18;53.65;102326.41;7965642;28;20662;-67
2021/10/10 01:44:50;;;;;;;5.40;3.65;;;;;;;8.10;53.77;102324.03;7991110;28;20500;-69
2021/10/10 01:48:41;;;;;;;6.82;4.00;;;;;;;8.07;53.77;102326.75;7991912;28;20437;-69
2021/10/10 01:52:33;;;;;;;6.10;3.88;;;;;;;8.02;54.00;102318.16;7995096;28;20033;-69
2021/10/10 01:56:24;;;;;;;8.15;3.80;;;;;;;7.98;53.82;102327.03;7971068;28;20063;-69
2021/10/10 02:00:15;;;;;;;6.72;3.80;;;;;;;7.94;54.02;102321.03;7993752;28;20493;-69
2021/10/10 02:04:05;;;;;;;9.02;3.83;;;;;;;7.89;53.89;102314.22;7990788;28;20586;-69
2021/10/10 02:07:56;;;;;;;11.57;4.18;;;;;;;7.85;54.12;102316.09;7990732;28;20047;-68
2021/10/10 02:11:47;;;;;;;6.10;3.47;;;;;;;7.77;53.81;102312.88;7987202;28;20051;-69
2021/10/10 02:15:41;;;;;;;5.72;3.80;;;;;;;7.79;54.16;102310.22;7976885;28;20637;-68
2021/10/10 02:19:32;;;;;;;6.32;3.67;;;;;;;7.74;53.72;102304.25;7962476;28;20029;-69
2021/10/10 02:23:23;;;;;;;10.68;4.65;;;;;;;7.71;53.87;102299.97;7987060;28;20120;-68
2021/10/10 02:27:13;;;;;;;5.25;3.65;;;;;;;7.69;54.14;102300.94;7989888;28;20031;-69
2021/10/10 02:31:04;;;;;;;4.82;3.22;;;;;;;7.66;54.22;102294.06;7990319;28;20131;-69
2021/10/10 02:34:55;;;;;;;6.03;3.55;;;;;;;7.63;54.46;102285.44;7989665;28;20539;-69
2021/10/10 02:38:45;;;;;;;6.75;3.75;;;;;;;7.64;54.23;102298.47;7988920;28;20040;-68
2021/10/10 02:42:36;;;;;;;6.50;3.70;;;;;;;7.63;54.16;102291.50;7970913;28;20381;-68
2021/10/10 02:46:28;;;;;;;5.13;3.58;;;;;;;7.66;54.63;102290.56;7971240;28;20035;-68
2021/10/10 02:50:18;;;;;;;5.32;3.67;;;;;;;7.66;54.49;102298.41;7988615;28;20030;-69
2021/10/10 02:54:09;;;;;;;8.60;3.90;;;;;;;7.62;54.61;102283.72;7988689;28;20036;-69
2021/10/10 02:58:02;;;;;;;5.90;3.80;;;;;;;7.68;54.93;102297.47;7968181;28;20042;-68
2021/10/10 03:01:52;;;;;;;6.35;4.22;;;;;;;7.60;54.73;102278.53;7989006;28;20048;-68
2021/10/10 03:05:43;;;;;;;7.65;3.85;;;;;;;7.71;54.70;102288.69;7990115;28;20039;-68
2021/10/10 03:09:33;;;;;;;8.57;3.97;;;;;;;7.72;54.40;102285.13;7990085;28;20570;-68
2021/10/10 03:13:24;;;;;;;7.82;4.72;;;;;;;7.70;54.68;102285.19;7952039;28;20025;-69
2021/10/10 03:17:15;;;;;;;10.73;3.92;;;;;;;7.71;54.54;102288.69;7955151;28;20091;-69
2021/10/10 03:21:06;;;;;;;10.23;4.15;;;;;;;7.70;54.76;102285.19;7987793;28;20094;-69
2021/10/10 03:24:56;;;;;;;6.35;3.90;;;;;;;7.69;54.58;102285.25;7987747;28;20037;-68
2021/10/10 03:28:47;;;;;;;8.77;4.30;;;;;;;7.67;54.90;102274.81;7988634;28;20562;-69
2021/10/10 03:32:37;;;;;;;9.25;3.95;;;;;;;7.66;54.55;102282.72;7986549;28;20033;-69
2021/10/10 03:36:28;;;;;;;7.88;3.30;;;;;;;7.65;54.55;102281.00;7984866;28;20056;-69
2021/10/10 03:40:18;;;;;;;6.50;3.90;;;;;;;7.64;54.73;102288.00;7980824;28;20047;-68
2021/10/10 03:44:09;;;;;;;10.05;4.30;;;;;;;7.61;54.62;102277.63;7982520;28;20033;-68
2021/10/10 03:48:00;;;;;;;6.65;3.75;;;;;;;7.59;54.64;102274.19;7988984;28;20047;-68
2021/10/10 03:51:50;;;;;;;6.78;3.88;;;;;;;7.58;54.52;102274.25;7987367;28;20104;-67
2021/10/10 03:55:41;;;;;;;6.95;3.95;;;;;;;7.57;54.63;102262.94;7986156;28;20409;-67
2021/10/10 03:59:31;;;;;;;6.53;4.30;;;;;;;7.55;54.54;102264.75;7986291;28;20626;-68
2021/10/10 04:03:22;;;;;;;8.13;3.90;;;;;;;7.53;54.62;102269.19;7953909;28;20091;-67
2021/10/10 04:07:15;;;;;;;5.53;4.13;;;;;;;7.42;54.67;102259.03;7965328;28;20041;-68
2021/10/10 04:11:05;;;;;;;6.53;3.95;;;;;;;7.49;54.63;102267.56;7980761;28;20655;-68
2021/10/10 04:14:56;;;;;;;7.63;3.63;;;;;;;7.46;54.81;102265.88;7958564;28;20043;-68
2021/10/10 04:18:46;;;;;;;5.25;3.63;;;;;;;7.41;54.78;102251.25;7986189;28;20621;-67
2021/10/10 04:22:38;;;;;;;6.60;4.55;;;;;;;7.45;54.77;102260.72;7972543;28;20025;-68
2021/10/10 04:26:29;;;;;;;10.73;4.57;;;;;;;7.43;54.92;102258.13;7985878;28;20128;-67
2021/10/10 04:30:19;;;;;;;7.75;4.50;;;;;;;7.43;54.95;102263.38;7967667;28;20037;-67
2021/10/10 04:34:11;;;;;;;6.88;3.95;;;;;;;7.43;54.76;102260.75;7985386;28;20029;-67
2021/10/10 04:38:02;;;;;;;6.68;3.83;;;;;;;7.42;54.71;102261.66;7985446;28;20041;-68
2021/10/10 04:41:52;;;;;;;6.00;3.63;;;;;;;7.42;54.55;102274.72;7968429;28;20103;-67
2021/10/10 04:45:43;;;;;;;10.25;4.85;;;;;;;7.41;54.84;102269.56;7986201;28;20090;-67
2021/10/10 04:49:34;;;;;;;9.77;4.40;;;;;;;7.40;54.87;102275.69;7986178;28;20533;-67
2021/10/10 04:53:24;;;;;;;9.82;4.30;;;;;;;7.38;54.80;102275.72;7971866;28;20051;-67
2021/10/10 04:57:16;;;;;;;11.07;4.38;;;;;;;7.35;54.62;102277.56;7978065;28;20688;-68
2021/10/10 05:01:07;;;;;;;8.18;4.38;;;;;;;7.30;54.58;102272.47;7978880;28;20030;-67
2021/10/10 05:04:57;;;;;;;7.05;4.00;;;;;;;7.25;54.53;102282.25;7985709;28;20037;-67
2021/10/10 05:08:48;;;;;;;7.90;3.92;;;;;;;7.16;54.11;102272.06;7985879;28;20034;-67
2021/10/10 05:12:38;;;;;;;8.95;4.82;;;;;;;7.15;54.56;102286.03;7969301;28;20518;-67
2021/10/10 05:16:29;;;;;;;10.23;5.53;;;;;;;7.06;54.20;102270.59;7986058;28;20029;-66
2021/10/10 05:20:20;;;;;;;13.20;5.50;;;;;;;7.05;54.11;102284.56;7986857;28;20041;-67
2021/10/10 05:24:10;;;;;;;7.65;5.03;;;;;;;6.99;54.11;102279.53;7985851;28;20689;-67
2021/10/10 05:28:01;;;;;;;12.70;4.97;;;;;;;6.91;54.35;102284.13;7985991;28;20036;-67
2021/10/10 05:31:51;;;;;;;11.93;5.72;;;;;;;6.92;54.07;102283.22;7970074;28;20037;-67
2021/10/10 05:35:42;;;;;;;10.07;5.65;;;;;;;6.86;54.13;102293.84;7984498;28;20037;-67
2021/10/10 05:39:33;;;;;;;9.70;5.30;;;;;;;6.82;53.96;102285.22;7983909;28;20458;-67
2021/10/10 05:43:23;;;;;;;11.23;4.72;;;;;;;6.78;54.67;102294.06;7977798;28;20049;-66
2021/10/10 05:47:14;;;;;;;8.68;4.93;;;;;;;6.75;53.92;102295.91;7980852;28;20037;-67
2021/10/10 05:51:05;;;;;;;6.80;4.60;;;;;;;6.69;54.51;102288.19;7985813;28;20153;-67
2021/10/10 05:54:55;;;;;;;10.48;4.97;;;;;;;6.67;54.07;102292.59;7984637;28;20104;-67
2021/10/10 05:58:50;;;;;;;8.43;4.93;;;;;;;6.63;54.26;102285.75;7984392;28;20033;-67
2021/10/10 06:02:42;;;;;;;10.18;5.35;;;;;;;6.60;54.44;102286.69;7987913;28;20497;-67
2021/10/10 06:06:32;;;;;;;9.25;5.05;;;;;;;6.57;54.32;102290.25;7970514;28;20037;-67
2021/10/10 06:10:23;;;;;;;8.80;5.18;;;;;;;6.56;54.16;102293.75;7989384;28;20115;-67
2021/10/10 06:14:14;;;;;;;11.38;4.70;;;;;;;6.54;54.65;102295.56;7978543;28;20140;-66
2021/10/10 06:18:04;;;;;;;11.93;4.70;;;;;;;6.55;54.24;102288.59;7987180;28;20109;-67
2021/10/10 06:21:55;;;;;;;8.18;4.75;;;;;;;6.55;54.41;102293.81;7991168;28;20028;-67
2021/10/10 06:25:45;;;;;;;8.57;4.90;;;;;;;6.54;54.53;102284.25;7977703;28;20678;-66
2021/10/10 06:29:36;;;;;;;8.63;4.47;;;;;;;6.54;54.35;102282.50;7981678;28;20037;-67
2021/10/10 06:33:26;;;;;;;8.98;4.82;;;;;;;6.56;54.26;102279.81;7988572;28;20124;-67
2021/10/10 06:37:17;;;;;;;14.50;5.78;;;;;;;6.56;54.78;102279.81;8005661;28;20158;-67
2021/10/10 06:41:07;;;;;;;8.15;4.63;;;;;;;6.59;54.61;102288.44;8005288;28;20037;-66
2021/10/10 06:44:58;;;;;;;6.82;4.72;;;;;;;6.59;55.06;102293.66;7995193;28;20038;-67
2021/10/10 06:48:48;;;;;;;8.32;4.63;;;;;;;6.64;54.83;102290.06;7971582;28;20413;-67
2021/10/10 06:52:39;;;;;;;10.07;5.45;;;;;;;6.65;54.93;102294.38;7995375;28;20029;-68
2021/10/10 06:56:30;;;;;;;7.45;4.47;;;;;;;6.69;54.86;102291.66;8005881;28;20109;-67
2021/10/10 07:00:20;;;;;;;11.43;5.20;;;;;;;6.74;54.88;102292.44;7993184;28;20037;-67
2021/10/10 07:04:11;;;;;;;9.43;5.13;;;;;;;6.76;55.12;102276.72;7989252;28;20525;-66
2021/10/10 07:08:01;;;;;;;8.27;4.63;;;;;;;6.84;55.43;102285.19;7963991;28;20032;-67
2021/10/10 07:12:11;;;;;;;9.02;4.85;;;;;;;6.89;55.61;102289.38;7991985;28;20045;-67
2021/10/10 07:16:02;;;;;;;6.88;4.93;;;;;;;6.96;55.53;102285.72;7987990;28;20448;-67
2021/10/10 07:20:02;;;;;;;7.93;5.20;;;;;;;6.99;55.43;102292.59;7983683;28;20037;-67
2021/10/10 07:27:44;;;;;;;10.75;5.47;;;;;;;7.21;55.51;102304.16;8004077;28;20032;-66
2021/10/10 07:31:35;;;;;;;7.97;4.93;;;;;;;7.31;55.46;102308.19;8003651;28;20133;-67
2021/10/10 07:35:25;;;;;;;10.00;5.25;;;;;;;7.38;55.86;102294.03;8003824;28;20037;-67
2021/10/10 07:39:16;;;;;;;8.60;5.50;;;;;;;7.46;55.81;102297.25;8003920;28;20029;-67
2021/10/10 07:43:06;;;;;;;9.30;5.10;;;;;;;7.55;55.67;102296.13;8003497;28;20067;-67
2021/10/10 07:47:17;;;;;;;9.02;5.32;;;;;;;7.64;55.71;102305.44;8004323;28;20108;-67
2021/10/10 07:51:08;;;;;;;8.57;5.28;;;;;;;7.75;55.99;102316.44;7984572;28;20671;-67
2021/10/10 07:54:58;;;;;;;10.10;5.00;;;;;;;7.82;56.08;102310.97;7991671;28;20021;-67
2021/10/10 07:58:49;;;;;;;8.60;5.03;;;;;;;7.88;55.98;102307.28;7973708;28;20520;-67
2021/10/10 08:02:53;;;;;;;11.40;5.32;;;;;;;8.05;56.05;102312.81;7968599;28;20433;-67
2021/10/10 08:06:44;;;;;;;7.88;5.13;;;;;;;8.22;56.03;102307.06;7987819;28;20701;-67
2021/10/10 08:10:34;;;;;;;9.48;4.93;;;;;;;8.46;55.87;102306.22;7974122;28;20124;-67
2021/10/10 08:14:25;;;;;;;9.82;4.35;;;;;;;8.84;55.94;102307.50;7984372;28;20061;-67
2021/10/10 08:18:16;;;;;;;6.53;4.18;;;;;;;9.38;55.93;102304.63;7977702;28;20033;-67
2021/10/10 08:22:06;;;;;;;6.88;4.70;;;;;;;9.84;55.22;102300.19;7984516;28;20028;-67
2021/10/10 08:25:57;;;;;;;6.85;4.15;;;;;;;10.28;55.13;102307.06;7968471;28;20036;-67
2021/10/10 08:29:47;;;;;;;8.85;4.97;;;;;;;10.50;55.15;102313.19;7985926;28;20043;-67
2021/10/10 08:33:38;;;;;;;7.05;5.18;;;;;;;10.76;55.17;102304.16;7990482;28;20063;-66
2021/10/10 08:37:28;;;;;;;6.95;5.30;;;;;;;10.99;55.45;102300.50;7978188;28;20040;-66
2021/10/10 08:41:24;;;;;;;7.75;5.60;;;;;;;11.26;55.54;102301.88;7996076;28;20041;-66
2021/10/10 08:49:05;;;;;;;9.48;5.60;;;;;;;11.70;55.80;102269.97;7985680;28;20083;-66
2021/10/10 08:52:59;;;;;;;8.95;5.45;;;;;;;11.90;55.63;102261.94;7977461;28;20029;-66
2021/10/10 08:56:50;;;;;;;10.45;6.00;;;;;;;12.08;55.70;102263.69;7994945;28;20094;-67
2021/10/10 09:00:48;;;;;;;10.68;5.88;;;;;;;12.24;55.65;102261.09;7973521;28;20395;-66
2021/10/10 09:04:39;;;;;;;8.05;4.80;;;;;;;12.36;55.56;102242.88;7971941;28;20053;-67
2021/10/10 09:08:30;;;;;;;8.70;5.38;;;;;;;12.47;55.81;102243.19;7966166;28;20030;-67
2021/10/10 09:12:28;;;;;;;8.43;4.93;;;;;;;12.56;55.57;102268.19;7962311;28;20084;-67
2021/10/10 09:16:32;;;;;;;11.00;5.60;;;;;;;12.65;55.66;102287.97;7961011;28;20041;-67
2021/10/10 09:20:26;;;;;;;9.15;5.70;;;;;;;12.70;55.43;102293.88;7963923;28;20037;-67
2021/10/10 09:24:26;;;;;;;9.80;5.65;;;;;;;12.69;55.40;102290.38;7985755;28;20121;-67
2021/10/10 09:28:24;;;;;;;7.15;5.10;;;;;;;12.66;55.26;102293.19;7972124;28;20030;-68
2021/10/10 09:32:18;;;;;;;10.45;5.70;;;;;;;12.63;55.18;102303.03;7990437;28;20479;-67
2021/10/10 09:36:18;;;;;;;8.27;5.40;;;;;;;12.57;54.93;102296.25;7972564;28;20033;-67
2021/10/10 09:40:25;;;;;;;8.70;5.55;;;;;;;12.52;54.68;102291.22;7983957;28;20120;-67
2021/10/10 09:44:22;;;;;;;7.03;4.78;;;;;;;12.43;54.82;102290.88;7969598;28;20587;-72
2021/10/10 09:48:14;;;;;;;8.15;5.55;;;;;;;12.44;54.87;102296.03;7947235;28;20039;-65
2021/10/10 09:52:08;;;;;;;8.32;5.82;;;;;;;12.39;54.43;102287.53;7963625;28;20064;-66
2021/10/10 09:56:07;;;;;;;11.20;5.07;;;;;;;12.35;54.60;102288.59;7988645;28;20036;-67
2021/10/10 09:59:58;;;;;;;11.10;5.45;;;;;;;12.32;54.53;102295.81;7971156;28;20060;-65
2021/10/10 10:04:05;;;;;;;8.95;6.10;;;;;;;12.27;54.39;102298.69;7961001;28;20123;-66
2021/10/10 10:07:57;;;;;;;7.28;5.20;;;;;;;12.25;54.57;102299.72;7966423;28;20674;-66
2021/10/10 10:11:48;;;;;;;9.48;4.85;;;;;;;12.25;54.62;102297.94;7972953;28;20060;-65
2021/10/10 10:15:38;;;;;;;9.10;5.22;;;;;;;12.26;54.61;102293.50;7948080;28;20025;-65
2021/10/10 10:19:33;;;;;;;8.10;5.50;;;;;;;12.28;54.69;102302.19;7963905;28;20057;-65
2021/10/10 10:23:23;;;;;;;13.35;6.13;;;;;;;12.28;54.66;102295.13;7957811;28;20128;-65
2021/10/10 10:27:15;;;;;;;9.90;5.65;;;;;;;12.34;54.52;102296.59;7971889;28;20029;-66
2021/10/10 10:31:07;;;;;;;9.70;5.53;;;;;;;12.36;54.52;102286.81;7987028;28;20586;-66
2021/10/10 10:35:12;;;;;;;11.80;5.85;;;;;;;12.38;54.45;102288.47;7986991;28;20037;-65
2021/10/10 10:39:02;;;;;;;9.70;6.55;;;;;;;12.45;54.46;102295.13;7976604;28;20037;-65
2021/10/10 10:42:55;;;;;;;9.50;6.45;;;;;;;12.52;54.53;102295.66;7956361;28;20121;-66
2021/10/10 10:47:12;;;;;;;14.63;6.82;;;;;;;12.52;54.48;102280.69;7958908;28;20591;-66
2021/10/10 10:51:26;;;;;;;11.82;6.15;;;;;;;12.62;54.27;102282.88;7948408;28;20030;-65
2021/10/10 10:55:28;;;;;;;10.65;6.40;;;;;;;12.67;54.29;102286.13;7976916;28;20669;-65
2021/10/10 10:59:19;;;;;;;11.00;6.28;;;;;;;12.68;54.46;102277.31;7966479;28;20041;-65
2021/10/10 11:03:13;;;;;;;10.15;6.88;;;;;;;12.75;54.10;102266.34;7961410;28;20126;-65
2021/10/10 11:07:08;;;;;;;8.45;6.20;;;;;;;12.78;54.14;102255.63;7976681;28;20490;-66
2021/10/10 11:11:20;;;;;;;11.15;6.53;;;;;;;12.83;54.05;102264.16;7969537;28;20947;-65
2021/10/10 11:15:11;;;;;;;10.00;6.05;;;;;;;12.84;54.25;102243.91;7959014;28;20458;-66
2021/10/10 11:19:08;;;;;;;10.82;6.25;;;;;;;12.94;54.28;102242.44;7973636;28;20682;-66
2021/10/10 11:22:58;;;;;;;13.57;6.15;;;;;;;13.01;54.40;102240.34;7975934;28;20044;-65
2021/10/10 11:26:52;;;;;;;7.63;5.53;;;;;;;13.07;54.11;102235.59;7975666;28;20041;-66
2021/10/10 11:30:42;;;;;;;8.85;5.32;;;;;;;13.12;54.14;102235.31;7979980;28;20041;-65
2021/10/10 11:34:33;;;;;;;9.27;6.18;;;;;;;13.13;54.06;102237.91;7960586;28;20029;-66
2021/10/10 11:38:23;;;;;;;11.55;6.85;;;;;;;13.10;54.03;102232.75;7979032;28;20784;-66
2021/10/10 11:42:14;;;;;;;11.65;6.68;;;;;;;13.15;54.07;102232.50;7983639;28;20716;-65
2021/10/10 11:46:05;;;;;;;9.02;5.70;;;;;;;13.13;54.00;102227.34;7973164;28;20489;-65
2021/10/10 11:49:58;;;;;;;9.13;5.55;;;;;;;13.10;53.88;102240.69;7972364;28;20087;-65
2021/10/10 11:53:50;;;;;;;9.43;6.18;;;;;;;13.06;54.00;102249.69;7977824;28;20112;-66
2021/10/10 11:57:41;;;;;;;8.93;5.60;;;;;;;13.03;53.65;102247.22;7967465;28;20750;-66
2021/10/10 12:01:31;;;;;;;7.13;4.85;;;;;;;13.03;53.87;102236.69;7985256;28;20688;-66
2021/10/10 12:05:24;;;;;;;9.82;6.45;;;;;;;13.00;53.77;102226.31;7984950;28;20033;-65
2021/10/10 12:09:16;;;;;;;9.02;5.85;;;;;;;12.98;53.88;102222.88;7975891;28;20108;-66
2021/10/10 12:13:06;;;;;;;10.95;6.60;;;;;;;12.97;53.69;102227.31;7957642;28;20635;-66
2021/10/10 12:16:57;;;;;;;8.90;6.25;;;;;;;12.96;53.92;102223.00;7973307;28;20791;-65
2021/10/10 12:20:50;;;;;;;8.68;5.80;;;;;;;12.93;53.87;102215.22;7974747;28;20028;-66
2021/10/10 12:24:46;;;;;;;10.13;6.28;;;;;;;12.95;53.90;102221.28;7975802;28;20065;-66
2021/10/10 12:28:36;;;;;;;10.73;6.38;;;;;;;12.94;53.87;102219.56;7978353;28;20078;-66
2021/10/10 12:32:30;;;;;;;10.70;6.72;;;;;;;12.97;54.01;102222.03;7985438;28;20060;-66
2021/10/10 12:36:20;;;;;;;9.55;6.38;;;;;;;12.93;53.76;102212.59;7978090;28;20033;-65
2021/10/10 12:40:21;;;;;;;10.73;6.32;;;;;;;12.95;53.71;102216.00;7984595;28;20116;-66
2021/10/10 12:44:15;;;;;;;10.70;7.07;;;;;;;12.99;53.78;102208.78;7970168;28;20033;-65
2021/10/10 12:48:10;;;;;;;9.32;7.32;;;;;;;12.99;53.55;102214.91;7978364;28;20037;-66
2021/10/10 12:52:03;;;;;;;12.77;5.65;;;;;;;12.98;53.77;102196.50;7982078;28;20037;-67
2021/10/10 12:56:19;;;;;;;13.63;7.18;;;;;;;13.02;53.64;102213.00;7973104;28;20029;-66
2021/10/10 13:00:17;;;;;;;14.45;6.72;;;;;;;12.99;53.67;102204.34;7980325;28;20028;-67
2021/10/10 13:04:07;;;;;;;10.35;6.00;;;;;;;13.04;53.66;102205.88;7972746;28;20124;-66
2021/10/10 13:07:58;;;;;;;12.77;6.97;;;;;;;13.06;53.76;102202.22;7959786;28;20025;-65
2021/10/10 13:11:49;;;;;;;8.68;5.78;;;;;;;13.08;53.43;102194.22;7977590;28;20067;-65
2021/10/10 13:15:39;;;;;;;10.95;5.78;;;;;;;13.11;53.38;102197.53;7970721;28;20037;-65
2021/10/10 13:19:30;;;;;;;11.00;6.13;;;;;;;13.13;53.23;102190.41;7974424;28;20034;-66
2021/10/10 13:23:20;;;;;;;9.98;6.20;;;;;;;13.15;53.36;102193.78;7975446;28;20037;-66
2021/10/10 13:27:11;;;;;;;9.32;5.82;;;;;;;13.18;53.55;102190.97;7956041;28;20037;-66
2021/10/10 13:31:03;;;;;;;15.05;6.10;;;;;;;13.20;53.29;102182.97;7974796;28;20084;-65
2021/10/10 13:34:54;;;;;;;9.45;6.15;;;;;;;13.16;53.31;102173.53;7967966;28;20041;-66
2021/10/10 13:38:44;;;;;;;10.07;6.43;;;;;;;13.26;53.27;102182.66;7975587;28;20040;-65
2021/10/10 13:42:35;;;;;;;13.50;6.82;;;;;;;13.28;53.12;102173.69;7958444;28;20025;-66
2021/10/10 13:46:26;;;;;;;12.65;6.28;;;;;;;13.31;53.03;102173.50;7976884;28;20367;-65
2021/10/10 13:50:16;;;;;;;12.60;6.80;;;;;;;13.34;52.99;102170.72;7980183;28;20091;-67
2021/10/10 13:54:07;;;;;;;11.93;7.15;;;;;;;13.36;52.98;102171.47;7978160;28;20113;-67
2021/10/10 13:57:58;;;;;;;13.18;7.03;;;;;;;13.36;53.17;102157.41;7984734;28;20421;-66
2021/10/10 14:01:48;;;;;;;15.05;6.72;;;;;;;13.38;53.13;102158.19;7979668;28;20036;-67
2021/10/10 14:05:40;;;;;;;9.25;6.78;;;;;;;13.40;53.05;102159.78;7973712;28;20037;-66
2021/10/10 14:09:30;;;;;;;10.55;6.90;;;;;;;13.45;53.23;102163.03;7974543;28;20026;-67
2021/10/10 14:13:21;;;;;;;9.20;6.75;;;;;;;13.46;53.14;102155.97;7976305;28;20040;-67
2021/10/10 14:17:12;;;;;;;11.55;6.88;;;;;;;13.49;53.09;102155.78;7943144;28;20124;-66
2021/10/10 14:21:03;;;;;;;8.80;6.18;;;;;;;13.51;53.07;102159.16;7972800;28;20037;-65
2021/10/10 14:24:54;;;;;;;9.65;6.55;;;;;;;13.53;53.01;102157.31;7962726;28;20021;-66
2021/10/10 14:28:44;;;;;;;15.20;7.05;;;;;;;13.51;53.29;102148.59;7980079;28;20037;-67
2021/10/10 14:32:38;;;;;;;11.38;6.43;;;;;;;13.54;52.76;102148.47;7979235;28;20131;-66
2021/10/10 14:36:29;;;;;;;12.18;6.78;;;;;;;13.55;53.16;102149.34;7973154;28;20017;-66
2021/10/10 14:40:20;;;;;;;11.70;6.03;;;;;;;13.55;52.84;102154.63;7975258;28;20533;-66
2021/10/10 14:48:13;;;;;;;9.45;6.05;;;;;;;13.55;52.85;102146.69;7976982;28;20665;-66
2021/10/10 14:52:05;;;;;;;10.38;5.95;;;;;;;13.54;52.58;102140.56;7984175;28;20604;-66
2021/10/10 14:55:55;;;;;;;8.75;5.60;;;;;;;13.54;52.69;102144.97;7952249;28;20044;-66
2021/10/10 14:59:46;;;;;;;8.93;5.38;;;;;;;13.54;52.65;102143.19;7953251;28;20379;-65
2021/10/10 15:03:36;;;;;;;10.93;5.20;;;;;;;13.56;52.29;102146.59;7972731;28;20111;-65
2021/10/10 15:07:29;;;;;;;12.75;5.63;;;;;;;13.54;52.46;102147.63;7957311;28;20055;-65
2021/10/10 15:11:20;;;;;;;15.15;6.32;;;;;;;13.52;52.41;102150.34;7959560;28;20038;-65
2021/10/10 15:15:11;;;;;;;8.55;5.22;;;;;;;13.51;52.31;102145.13;7968769;28;20033;-65
2021/10/10 15:19:01;;;;;;;9.77;5.55;;;;;;;13.45;52.74;102138.41;7951224;28;20049;-65
2021/10/10 15:22:52;;;;;;;8.27;4.90;;;;;;;13.45;52.36;102138.41;7975320;28;20033;-66
2021/10/10 15:26:42;;;;;;;8.30;5.55;;;;;;;13.45;52.59;102139.28;7974340;28;20037;-65
2021/10/10 15:30:33;;;;;;;10.88;6.20;;;;;;;13.40;52.72;102128.13;7974850;28;20534;-65
2021/10/10 15:34:23;;;;;;;10.23;5.72;;;;;;;13.41;52.69;102132.47;7950390;28;20033;-65
2021/10/10 15:38:14;;;;;;;14.82;9.57;;;;;;;13.39;52.59;102138.75;7975440;28;20060;-65
2021/10/10 15:42:05;;;;;;;14.80;9.20;;;;;;;13.37;52.58;102138.88;7954545;28;20033;-64
2021/10/10 15:45:56;;;;;;;17.10;9.10;;;;;;;13.33;52.52;102133.84;7981486;28;20397;-65
2021/10/10 15:49:46;;;;;;;12.50;7.78;;;;;;;13.31;52.71;102133.94;7974662;28;20433;-65
2021/10/10 15:53:37;;;;;;;12.63;7.57;;;;;;;13.28;52.82;102131.47;7975283;28;20035;-66
2021/10/10 15:57:29;;;;;;;13.38;7.55;;;;;;;13.26;52.77;102140.44;7960762;28;20041;-65
2021/10/10 16:01:20;;;;;;;15.90;8.55;;;;;;;13.20;52.93;102146.91;7958969;28;20118;-65
2021/10/10 16:05:12;;;;;;;14.23;9.02;;;;;;;13.10;52.94;102131.66;7963570;28;20037;-65
2021/10/10 16:09:03;;;;;;;13.60;9.10;;;;;;;13.12;53.31;102143.00;7972623;28;20056;-67
2021/10/10 16:12:56;;;;;;;15.48;9.57;;;;;;;13.04;53.06;102140.78;7970324;28;20445;-65
2021/10/10 16:16:46;;;;;;;15.80;10.68;;;;;;;13.04;53.11;102139.94;7969485;28;20045;-66
2021/10/10 16:20:37;;;;;;;15.88;10.52;;;;;;;12.96;53.22;102135.94;7964167;28;20037;-65
2021/10/10 16:24:29;;;;;;;19.38;11.68;;;;;;;12.97;53.02;102137.63;7962799;28;20121;-64
2021/10/10 16:28:19;;;;;;;18.95;11.55;;;;;;;12.95;53.14;102141.31;7956806;28;20028;-65
2021/10/10 16:32:10;;;;;;;16.13;9.77;;;;;;;12.91;53.08;102132.72;7954052;28;20026;-64
2021/10/10 16:39:57;;;;;;;24.02;14.77;;;;;;;12.81;53.11;102139.41;7970068;28;20028;-66
2021/10/10 16:43:48;;;;;;;25.75;13.18;;;;;;;12.74;53.00;102139.84;7967838;28;20037;-67
2021/10/10 16:47:39;;;;;;;24.02;13.73;;;;;;;12.69;52.97;102133.97;7969557;28;20059;-66
2021/10/10 16:51:29;;;;;;;21.70;13.73;;;;;;;12.61;53.02;102144.09;7976056;28;20021;-67
2021/10/10 16:55:20;;;;;;;25.23;13.98;;;;;;;12.52;52.96;102133.09;7964328;28;20032;-66
2021/10/10 16:59:11;;;;;;;22.10;13.40;;;;;;;12.46;53.03;102136.06;7982336;28;20040;-66
2021/10/10 17:03:01;;;;;;;23.88;14.38;;;;;;;12.39;52.98;102139.13;7985549;28;20174;-66
2021/10/10 17:06:52;;;;;;;20.55;13.55;;;;;;;12.29;52.93;102141.38;7987044;28;20490;-66
2021/10/10 17:10:42;;;;;;;23.25;13.75;;;;;;;12.21;52.45;102142.72;7985439;28;20032;-65
2021/10/10 17:14:33;;;;;;;23.70;13.43;;;;;;;12.12;52.83;102143.19;7952374;28;20040;-65
2021/10/10 17:18:24;;;;;;;20.30;13.70;;;;;;;12.04;52.92;102151.50;7985163;28;20052;-67
2021/10/10 17:22:15;;;;;;;22.63;13.65;;;;;;;11.94;52.98;102158.16;7984427;28;20033;-67
2021/10/10 17:26:05;;;;;;;21.13;13.43;;;;;;;11.82;52.98;102148.25;7951244;28;20041;-66
2021/10/10 17:29:56;;;;;;;20.92;12.30;;;;;;;11.76;52.99;102144.19;7967194;28;20029;-67
2021/10/10 17:33:47;;;;;;;24.77;13.63;;;;;;;11.68;53.04;102140.22;7968437;28;20029;-67
2021/10/10 17:37:37;;;;;;;24.77;15.15;;;;;;;11.64;53.00;102154.47;7985934;28;20086;-66
2021/10/10 17:41:28;;;;;;;22.92;13.50;;;;;;;11.56;53.07;102157.47;7985977;28;20119;-67
2021/10/10 17:45:19;;;;;;;21.08;13.20;;;;;;;11.50;53.10;102165.66;7985743;28;20082;-66
2021/10/10 17:49:10;;;;;;;26.50;13.88;;;;;;;11.38;52.67;102158.38;7986251;28;20573;-67
2021/10/10 17:53:01;;;;;;;21.80;13.68;;;;;;;11.37;52.92;102167.19;7985173;28;20036;-66
2021/10/10 17:56:51;;;;;;;20.05;13.18;;;;;;;11.30;52.95;102178.94;7987083;28;20806;-66
2021/10/10 18:12:51;;;;;;;19.98;12.68;;;;;;;11.02;53.24;102180.28;7974346;28;20395;-66
2021/10/10 18:16:42;;;;;;;20.10;12.95;;;;;;;10.97;53.02;102178.78;7982724;28;20044;-66
2021/10/10 18:20:32;;;;;;;21.60;13.45;;;;;;;10.93;53.21;102193.84;7980892;28;20124;-66
2021/10/10 18:24:23;;;;;;;23.85;13.45;;;;;;;10.85;52.86;102180.19;7991497;28;20033;-66